Rognaldsvag, Norway

12:53 PM CET on November 18, 2017 (GMT +0100)
Flora | | Change Station

Elev 0 ft 61.60 °N, 5.02 °E | Updated 11 minutes ago

Rain
Rain
44.2 °F
Feels Like 39 °F
N
9.3
Wind Variable Wind from West
Gusts 16.8 mph

Today
High -- | Low -- °F
--% Chance of Precip.
Yesterday
High -- | Low -- °F
Precip. -- in
Pressure 29.15 in
Visibility 6.2 miles
Clouds Few 1500 ft
Scattered Clouds 2400 ft
Mostly Cloudy 3200 ft
Windchill 39 °F
Dew Point 41 °F
Humidity 88%
Rainfall Not available.
Snow Depth Not available.
8:57 AM 3:53 PM
New Moon, 0% visible
METAR ENFL 181120Z AUTO 28023KT 9999NDV -SHRA FEW015/// SCT024/// BKN032/// 07/04 Q0987
Pressure 29.15 in
Visibility 6.2 miles
Clouds Few 1500 ft
Scattered Clouds 2400 ft
Mostly Cloudy 3200 ft
Windchill 39 °F
Dew Point 41 °F
Humidity 88%
Rainfall Not available.
Snow Depth Not available.
8:57 AM 3:53 PM
New Moon, 0% visible
METAR ENFL 181120Z AUTO 28023KT 9999NDV -SHRA FEW015/// SCT024/// BKN032/// 07/04 Q0987

Get Severe Weather Alerts

Thanks for signing up!

Be on the lookout for a verification email in your inbox.

You'll start receiving the daily forecast at 6 AM.

×

10-Day Weather Forecast

×

Almanac

Astronomy

Nov. 18, 2017 Rise Set
Actual Time
Civil Twilight
Nautical Twilight
Astronomical Twilight
Moon
Length of Visible Light
Length of Day
Tomorrow will be .
, % of the Moon is Illuminated

Today's Extremes

Country Highs Country Lows

Community

WunderPhotos

Category 6

Welcome to Category 6. This is the collective home for Weather Underground's featured writeups by Dr. Jeff Masters (right), Bob Henson (left), Chris Burt, and other regular contributors.

Nearby

Air Quality

  Air Quality AQ Index Pollutant
Not available.

Snow Depth

Station Depth Elevation

Earthquake Activity

City Distance Mag. Time & Date
Minimum magnitude displayed is 2.5.

Coastal Water Temperatures

Place Temperature

Stations

Nearby Weather Stations

Station Location Temp. Windchill Dew Point Humidity Wind Precip. Elev Updated Type